Warning: Javascript must be enabled to use all the features on this page!


Page Loading - Please Wait...

* We've detected you're using a mobile device. Find our Next Generation Station Page here.
Click to hideNews Bulletins

Peak Streamflow for the Nation

USGS 02227200 LITTLE HURRICANE CR AT US 1, BELOW ALMA, GA

Bacon County, Georgia
Hydrologic Unit Code 03070201
Latitude  31°25'25", Longitude  82°25'59" NAD27
Drainage area 103  square miles
Gage datum 120.00 feet above NGVD29
Output formats
Table
Graph
Tab-separated file
peakfq (watstore) format
Reselect output format
Water
Year
Date Gage
Height
(feet)
Stream-
flow
(cfs)
1948 1948-04 11.00Bd 7,500Bd
1949 1949-09-01 8.70 3,830
1950 1950-07-18 5.48 616
1951 1951-03-31 6.34 1,120
1952 1952-02-28 4.82 310
1953 1953-09-27 8.80 3,960
1954 1954-01-01 4.81 310
1955 1955-04-18 4.28 172
1956 1956-01-24 4.14 118
1957 1957-07-23 5.70 720
1958 1958-04-11 6.88 1,650
1959 1959-03-07 8.51 3,590
1960 1960-04-06 8.17 3,170
1961 1961-04-15 9.28 4,620
1962 1962-04-01 6.32 1,120
1963 1963-07-09 5.54 630
1964 1964-03-02 8.10 3,080
1965 1964-12-05 8.91 4,090
1966 1966-03-05 6.99 1,740
1967 1967-02-07 7.30 2,080
1968 1968 4.504,Bm 1594,Bm
1969 1969-09-19 6.11 988
1970 1970-08-13 6.24 1,130
1971 1971-08-19 6.72 1,480
1972 1972-02-03 6.29 1,130
1973 1973-04-04 6.70 1,470
1974 1974-09-07 6.29 1,130
1975 1975-04-16 6.41 1,230
1976 1976-05-15 6.46 1,270
1977 1977-03-08 6.53 1,320
1978 1978-01-27 6.39 1,210
1984 1984-03-07 8.94 4,1307
1986 1986-02-12 9.14 4,4007
1991 1991-03-05 9.39 4,8007
?
  Peak Gage-Height Qualification Codes.
?
  Peak Streamflow Qualification Codes.